GCSO2: Cave Springs brch nr S.W. City, MO

Data processed at Tue May 21 2019 23:50


All information presented herein is the property of the government of the United States of America and may be revised or deleted at any time without prior notice.
Dissemination of this information without the expressed written consent of the Public Affairs Office, Tulsa District U.S. Army Corps of Engineers is strictly prohibited.
These data are gathered electronically and, as presented, have not undergone any form of quality control. These data are not guaranteed to be valid or correct.
Go to home page.
Go to station list.
Go to home page.

Downstream station:


Previous Day
Next Day
Current Day
    
SHEF ID:       GCSO2     Cave Springs Br nr South W C
STATION TYPE:  

                STAGE  STAGE(2)  RIV-FLOW  BAT-LOAD
                   ft        ft       cfs      volt
              Ccp-Rev   Ccp-Rev   Ccp-Rev   Ccp-Rev
(US/Central)
05/21 00:00      8.22      8.65       435     12.49
05/21 01:00     10.44     11.15       963     12.41
05/21 02:00     10.85     11.91      1104     12.41
05/21 03:00     10.09     10.76       867     12.41
05/21 04:00      8.91      9.38       578     12.41
05/21 05:00      8.20      8.28       432     12.41
05/21 06:00      7.58      7.71       316     12.41
05/21 07:00      7.01      7.17       216     12.41
05/21 08:00      6.58      6.67       146     12.41
05/21 09:00      6.26      6.30       105     12.49
05/21 10:00      6.16      6.22        93      ----
05/21 11:00      8.02      8.04       398     12.41
05/21 12:00      9.25      9.76       655     12.41
05/21 13:00      9.20      9.72       644     12.41
05/21 14:00      8.57      8.49       505      ----
05/21 15:00      8.11      8.18       414     12.41
05/21 16:00      7.69      7.86       336     12.41
05/21 17:00      7.28      7.47       263     12.65
05/21 18:00      6.88      7.02       194     12.73
05/21 19:00      6.50      6.64       135     12.65
05/21 20:00      6.16      6.28        93     12.65
05/21 21:00      5.88      5.99        66     12.49
05/21 22:00      5.68      5.78        50     12.41
05/21 23:00      5.50      5.63        38     12.41